createdAt,value
2023-04-12T00:00:10.858Z,1.90
2023-04-12T00:02:38.289Z,2.22
2023-04-12T00:05:05.194Z,2.42
2023-04-12T00:07:32.280Z,1.88
2023-04-12T00:09:58.768Z,2.22
2023-04-12T00:12:25.357Z,1.88
2023-04-12T00:14:51.780Z,2.40
2023-04-12T00:17:19.338Z,1.90
2023-04-12T00:19:47.611Z,1.90
2023-04-12T00:22:16.060Z,1.95
2023-04-12T00:24:42.566Z,1.75
2023-04-12T00:27:09.082Z,1.90
2023-04-12T00:29:35.693Z,2.28
2023-04-12T00:32:03.754Z,2.25
2023-04-12T00:34:30.408Z,1.85
2023-04-12T00:36:57.034Z,1.77
2023-04-12T00:39:23.499Z,1.65
2023-04-12T00:41:49.988Z,1.90
2023-04-12T00:44:18.000Z,2.10
2023-04-12T00:46:46.356Z,1.98
2023-04-12T00:49:13.370Z,1.77
2023-04-12T00:51:40.292Z,1.88
2023-04-12T00:54:07.716Z,1.92
2023-04-12T00:56:34.727Z,1.52
2023-04-12T00:59:02.135Z,1.83
2023-04-12T01:01:28.691Z,1.90
2023-04-12T01:04:00.923Z,1.77
2023-04-12T01:06:40.616Z,1.92
2023-04-12T01:09:40.423Z,1.50
2023-04-12T01:12:41.413Z,1.55
2023-04-12T01:15:12.009Z,1.90
2023-04-12T01:17:49.712Z,1.73
2023-04-12T01:20:21.693Z,2.33
2023-04-12T01:23:03.777Z,1.70
2023-04-12T01:25:48.240Z,1.80
2023-04-12T01:28:20.261Z,1.63
2023-04-12T01:30:50.389Z,2.22
2023-04-12T01:33:18.395Z,2.17
2023-04-12T01:35:46.809Z,1.92
2023-04-12T01:38:13.777Z,1.92
2023-04-12T01:40:43.156Z,1.67
2023-04-12T01:43:14.369Z,1.77
2023-04-12T01:45:40.880Z,2.33
2023-04-12T01:48:12.035Z,1.80
2023-04-12T01:50:49.821Z,1.73
2023-04-12T01:53:27.541Z,1.77
2023-04-12T01:55:59.447Z,1.73
2023-04-12T01:58:27.011Z,1.58
2023-04-12T02:00:57.155Z,2.30
2023-04-12T02:03:24.668Z,1.98
2023-04-12T02:05:52.098Z,2.30
2023-04-12T02:08:18.514Z,1.90
2023-04-12T02:10:44.932Z,1.75
2023-04-12T02:13:11.853Z,2.10
2023-04-12T02:15:38.613Z,2.03
2023-04-12T02:18:05.153Z,2.00
2023-04-12T02:20:31.595Z,2.08
2023-04-12T02:22:58.066Z,2.70
2023-04-12T02:25:24.427Z,1.60
2023-04-12T02:27:51.196Z,1.27
2023-04-12T02:30:17.758Z,1.60
2023-04-12T02:32:45.529Z,2.20
2023-04-12T02:35:14.235Z,1.60
2023-04-12T02:37:41.199Z,1.77
2023-04-12T02:40:11.368Z,1.88
2023-04-12T02:42:37.772Z,1.52
2023-04-12T02:45:04.771Z,1.90
2023-04-12T02:47:31.295Z,1.80
2023-04-12T02:49:58.098Z,1.92
2023-04-12T02:52:24.460Z,1.95
2023-04-12T02:54:52.403Z,1.80
2023-04-12T02:57:21.115Z,2.00
2023-04-12T02:59:48.804Z,2.00
2023-04-12T03:02:15.413Z,2.00
2023-04-12T03:04:42.067Z,1.50
2023-04-12T03:07:08.437Z,1.90
2023-04-12T03:09:34.865Z,1.95
2023-04-12T03:12:02.084Z,1.80
2023-04-12T03:14:28.509Z,2.03
2023-04-12T03:16:54.953Z,1.85
2023-04-12T03:19:21.376Z,1.90
2023-04-12T03:21:47.747Z,1.77
2023-04-12T03:24:14.133Z,1.70
2023-04-12T03:26:42.094Z,1.38
2023-04-12T03:29:10.081Z,1.98
2023-04-12T03:31:37.881Z,2.38
2023-04-12T03:34:04.430Z,1.85
2023-04-12T03:36:31.274Z,1.50
2023-04-12T03:38:57.647Z,1.75
2023-04-12T03:41:24.162Z,1.58
2023-04-12T03:43:50.628Z,1.77
2023-04-12T03:46:17.259Z,1.70
2023-04-12T03:48:43.829Z,1.60
2023-04-12T03:51:12.233Z,1.55
2023-04-12T03:53:39.225Z,1.73
2023-04-12T03:56:06.279Z,2.00
2023-04-12T03:58:33.980Z,1.75
2023-04-12T04:01:05.996Z,1.95
2023-04-12T04:03:35.097Z,1.63
2023-04-12T04:06:02.347Z,1.95
2023-04-12T04:08:29.752Z,1.75
2023-04-12T04:11:00.317Z,1.88
2023-04-12T04:13:26.697Z,1.45
2023-04-12T04:16:00.699Z,1.38
2023-04-12T04:21:19.705Z,1.50
2023-04-12T04:23:47.904Z,1.67
2023-04-12T04:26:15.731Z,1.40
2023-04-12T04:28:44.931Z,1.63
2023-04-12T04:31:12.728Z,1.73
2023-04-12T04:33:40.290Z,1.77
2023-04-12T04:36:07.904Z,1.75
2023-04-12T04:38:34.374Z,2.00
2023-04-12T04:41:04.569Z,1.30
2023-04-12T04:43:31.420Z,1.60
2023-04-12T04:45:58.310Z,1.52
2023-04-12T04:48:25.149Z,1.40
2023-04-12T04:50:51.763Z,1.90
2023-04-12T04:53:19.821Z,1.65
2023-04-12T04:55:47.794Z,1.58
2023-04-12T04:58:16.220Z,1.55
2023-04-12T05:00:44.934Z,1.60
2023-04-12T05:03:12.000Z,1.60
2023-04-12T05:05:39.039Z,1.42
2023-04-12T05:08:05.986Z,3.25
2023-04-12T05:10:32.489Z,1.58
2023-04-12T05:12:59.000Z,1.17
2023-04-12T05:15:25.580Z,1.88
2023-04-12T05:17:52.183Z,1.27
2023-04-12T05:20:18.911Z,1.70
2023-04-12T05:22:45.392Z,1.60
2023-04-12T05:25:11.933Z,1.70
2023-04-12T05:27:38.752Z,1.42
2023-04-12T05:30:06.063Z,1.50
2023-04-12T05:32:32.707Z,1.45
2023-04-12T05:34:59.346Z,1.33
2023-04-12T05:37:27.969Z,1.50
2023-04-12T05:39:54.920Z,1.50
2023-04-12T05:42:21.347Z,1.45
2023-04-12T05:44:49.954Z,1.35
2023-04-12T05:47:16.950Z,1.50
2023-04-12T05:49:43.405Z,1.42
2023-04-12T05:52:10.024Z,1.58
2023-04-12T05:54:36.546Z,1.30
2023-04-12T05:57:03.266Z,1.58
2023-04-12T05:59:29.795Z,1.98
2023-04-12T06:01:57.016Z,1.30
2023-04-12T06:04:27.948Z,1.48
2023-04-12T06:06:58.853Z,1.27
2023-04-12T06:09:25.566Z,1.90
2023-04-12T06:11:53.218Z,1.48
2023-04-12T06:14:19.728Z,1.20
2023-04-12T06:16:46.201Z,1.50
2023-04-12T06:19:12.732Z,1.40
2023-04-12T06:21:39.281Z,1.60
2023-04-12T06:24:06.231Z,1.60
2023-04-12T06:26:39.433Z,1.77
2023-04-12T06:29:06.855Z,1.30
2023-04-12T06:31:33.394Z,1.42
2023-04-12T06:34:01.015Z,1.20
2023-04-12T06:36:27.471Z,1.45
2023-04-12T06:38:55.467Z,1.25
2023-04-12T06:41:22.163Z,1.38
2023-04-12T06:43:48.764Z,1.13
2023-04-12T06:46:18.632Z,1.30
2023-04-12T06:48:45.167Z,1.80
2023-04-12T06:51:11.689Z,1.20
2023-04-12T06:53:39.160Z,1.20
2023-04-12T06:56:06.155Z,0.95
2023-04-12T06:58:32.627Z,1.10
2023-04-12T07:01:10.063Z,1.15
2023-04-12T07:03:37.142Z,1.40
2023-04-12T07:06:13.775Z,1.10
2023-04-12T07:08:50.696Z,1.20
2023-04-12T07:11:21.628Z,1.02
2023-04-12T07:13:49.175Z,1.13
2023-04-12T07:16:15.965Z,0.95
2023-04-12T07:18:42.626Z,1.13
2023-04-12T07:21:09.193Z,1.15
2023-04-12T07:23:35.753Z,1.00
2023-04-12T07:26:02.655Z,0.82
2023-04-12T07:28:29.167Z,0.77
2023-04-12T07:30:55.884Z,1.35
2023-04-12T07:33:22.509Z,1.10
2023-04-12T07:35:49.178Z,1.00
2023-04-12T07:38:16.811Z,1.27
2023-04-12T07:40:43.779Z,1.10
2023-04-12T07:43:10.413Z,0.93
2023-04-12T07:45:37.711Z,0.90
2023-04-12T07:48:04.481Z,1.10
2023-04-12T07:50:31.208Z,0.75
2023-04-12T07:53:17.663Z,0.88
2023-04-12T07:55:44.157Z,0.75
2023-04-12T07:58:10.832Z,0.80
2023-04-12T08:00:37.311Z,0.70
2023-04-12T08:03:04.056Z,1.00
2023-04-12T08:05:31.002Z,0.80
2023-04-12T08:07:57.834Z,0.90
2023-04-12T08:10:24.682Z,0.90
2023-04-12T08:12:51.221Z,1.10
2023-04-12T08:15:17.818Z,0.70
2023-04-12T08:17:44.630Z,0.80
2023-04-12T08:20:12.174Z,0.85
2023-04-12T08:22:38.739Z,0.93
2023-04-12T08:25:05.689Z,0.63
2023-04-12T08:27:32.215Z,0.90
2023-04-12T08:29:58.718Z,0.70
2023-04-12T08:32:25.683Z,0.80
2023-04-12T08:34:52.322Z,0.80
2023-04-12T08:37:18.888Z,0.80
2023-04-12T08:39:45.423Z,1.08
2023-04-12T08:42:16.624Z,0.88
2023-04-12T08:44:43.890Z,0.80
2023-04-12T08:47:11.686Z,0.88
2023-04-12T08:49:38.621Z,0.73
2023-04-12T08:52:07.305Z,0.90
2023-04-12T08:54:34.862Z,0.90
2023-04-12T08:57:04.827Z,1.00
2023-04-12T08:59:33.125Z,0.90
2023-04-12T09:01:59.838Z,0.85
2023-04-12T09:04:26.812Z,0.70
2023-04-12T09:06:53.633Z,0.90
2023-04-12T09:09:20.241Z,0.80
2023-04-12T09:11:46.725Z,0.73
2023-04-12T09:14:24.652Z,0.80
2023-04-12T09:16:51.961Z,0.60
2023-04-12T09:19:31.971Z,0.90
2023-04-12T09:21:58.923Z,0.80
2023-04-12T09:24:25.613Z,1.20
2023-04-12T09:27:05.601Z,1.00
2023-04-12T09:29:33.308Z,0.50
2023-04-12T09:32:04.192Z,0.65
2023-04-12T09:34:33.782Z,0.70
2023-04-12T09:37:12.088Z,0.60
2023-04-12T09:39:40.185Z,0.60
2023-04-12T09:42:21.417Z,0.70
2023-04-12T09:44:57.440Z,0.98
2023-04-12T09:47:41.002Z,0.60
2023-04-12T09:50:09.564Z,0.60
2023-04-12T09:52:38.295Z,0.60
2023-04-12T09:55:11.535Z,0.85
2023-04-12T09:57:43.263Z,0.70
2023-04-12T10:00:20.382Z,0.70
2023-04-12T10:02:52.767Z,0.85
2023-04-12T10:05:26.362Z,0.50
2023-04-12T10:07:53.677Z,0.90
2023-04-12T10:10:21.195Z,0.70
2023-04-12T10:12:49.401Z,0.63
2023-04-12T10:15:21.160Z,0.63
2023-04-12T10:17:57.777Z,0.70
2023-04-12T10:20:28.046Z,0.63
2023-04-12T10:22:56.341Z,0.55
2023-04-12T10:25:25.880Z,0.70
2023-04-12T10:27:53.237Z,0.80
2023-04-12T10:30:27.523Z,0.60
2023-04-12T10:33:03.261Z,0.98
2023-04-12T10:35:48.653Z,0.80
2023-04-12T10:38:16.123Z,0.70
2023-04-12T10:41:13.473Z,0.70
2023-04-12T10:43:47.863Z,0.90
2023-04-12T10:46:40.031Z,0.80
2023-04-12T10:49:09.869Z,0.70
2023-04-12T10:51:37.039Z,0.90
2023-04-12T10:54:18.576Z,0.80
2023-04-12T10:56:49.161Z,0.90
2023-04-12T10:59:16.754Z,1.15
2023-04-12T11:02:12.928Z,0.98
2023-04-12T11:05:10.459Z,1.30
2023-04-12T11:07:42.101Z,1.10
2023-04-12T11:10:16.359Z,1.25
2023-04-12T11:12:55.291Z,1.20
2023-04-12T11:15:26.862Z,1.40
2023-04-12T11:17:57.905Z,1.02
2023-04-12T11:20:27.420Z,1.20
2023-04-12T11:22:54.952Z,1.27
2023-04-12T11:25:21.499Z,1.20
2023-04-12T11:27:52.651Z,0.65
2023-04-12T11:30:20.118Z,0.82
2023-04-12T11:32:47.513Z,0.90
2023-04-12T11:35:19.565Z,0.90
2023-04-12T11:37:46.152Z,0.65
2023-04-12T11:40:12.741Z,0.77
2023-04-12T11:42:40.268Z,0.90
2023-04-12T11:45:14.234Z,0.90
2023-04-12T11:47:44.291Z,1.02
2023-04-12T11:50:11.097Z,1.10
2023-04-12T11:52:37.681Z,0.90
2023-04-12T11:55:07.567Z,1.05
2023-04-12T11:57:34.872Z,1.10
2023-04-12T12:00:01.854Z,1.05
2023-04-12T12:02:32.361Z,1.30
2023-04-12T12:04:59.920Z,1.30
2023-04-12T12:07:27.857Z,1.42
2023-04-12T12:09:55.401Z,1.27
2023-04-12T12:12:23.636Z,1.40
2023-04-12T12:14:50.062Z,1.50
2023-04-12T12:17:17.335Z,1.40
2023-04-12T12:19:45.511Z,1.77
2023-04-12T12:22:21.578Z,1.40
2023-04-12T12:24:55.098Z,1.48
2023-04-12T12:27:34.037Z,1.75
2023-04-12T12:30:04.277Z,1.63
2023-04-12T12:32:35.528Z,1.85
2023-04-12T12:35:02.748Z,1.55
2023-04-12T12:37:31.053Z,1.70
2023-04-12T12:40:16.601Z,1.75
2023-04-12T12:42:48.700Z,1.75
2023-04-12T12:45:16.574Z,1.67
2023-04-12T12:47:51.892Z,1.92
2023-04-12T12:50:21.077Z,2.05
2023-04-12T12:52:49.325Z,2.53
2023-04-12T12:55:16.941Z,2.55
2023-04-12T12:57:51.939Z,2.10
2023-04-12T13:00:29.464Z,2.30
2023-04-12T13:02:56.657Z,2.20
2023-04-12T13:05:23.743Z,2.67
2023-04-12T13:07:50.238Z,2.47
2023-04-12T13:10:16.711Z,2.72
2023-04-12T13:12:43.170Z,2.92
2023-04-12T13:15:21.414Z,3.00
2023-04-12T13:17:49.196Z,2.97
2023-04-12T13:20:16.404Z,2.42
2023-04-12T13:22:43.074Z,3.10
2023-04-12T13:25:09.774Z,2.97
2023-04-12T13:27:36.613Z,1.90
2023-04-12T13:30:03.126Z,1.42
2023-04-12T13:32:29.655Z,1.30
2023-04-12T13:34:56.124Z,1.30
2023-04-12T13:37:22.625Z,1.20
2023-04-12T13:39:51.325Z,0.80
2023-04-12T13:42:17.878Z,0.93
2023-04-12T13:44:44.508Z,1.00
2023-04-12T13:47:11.132Z,1.05
2023-04-12T13:49:37.667Z,0.80
2023-04-12T13:52:04.225Z,1.02
2023-04-12T13:54:30.795Z,1.10
2023-04-12T13:56:58.163Z,0.80
2023-04-12T13:59:26.287Z,1.10
2023-04-12T14:01:53.174Z,0.90
2023-04-12T14:04:20.303Z,1.13
2023-04-12T14:06:46.903Z,1.08
2023-04-12T14:09:27.428Z,0.95
2023-04-12T14:11:55.847Z,1.00
2023-04-12T14:14:23.073Z,1.40
2023-04-12T14:16:52.111Z,1.20
2023-04-12T14:19:18.755Z,1.55
2023-04-12T14:21:46.738Z,1.55
2023-04-12T14:24:13.286Z,1.15
2023-04-12T14:26:40.068Z,1.17
2023-04-12T14:29:07.093Z,1.65
2023-04-12T14:31:34.889Z,1.48
2023-04-12T14:34:04.926Z,1.40
2023-04-12T14:36:33.588Z,1.65
2023-04-12T14:39:01.597Z,1.50
2023-04-12T14:41:28.345Z,1.65
2023-04-12T14:43:54.811Z,1.70
2023-04-12T14:46:21.491Z,1.80
2023-04-12T14:48:48.025Z,1.67
2023-04-12T14:51:14.516Z,2.03
2023-04-12T14:53:42.626Z,1.63
2023-04-12T14:56:28.693Z,1.80
2023-04-12T14:58:56.692Z,2.25
2023-04-12T15:01:24.102Z,1.98
2023-04-12T15:03:54.281Z,1.85
2023-04-12T15:06:22.961Z,2.63
2023-04-12T15:08:55.144Z,1.63
2023-04-12T15:11:27.421Z,1.83
2023-04-12T15:13:54.994Z,1.83
2023-04-12T15:16:22.233Z,2.00
2023-04-12T15:18:50.604Z,1.90
2023-04-12T15:21:17.201Z,1.60
2023-04-12T15:23:43.595Z,1.55
2023-04-12T15:26:10.561Z,1.25
2023-04-12T15:28:37.456Z,1.30
2023-04-12T15:31:04.642Z,1.40
2023-04-12T15:33:34.486Z,1.52
2023-04-12T15:36:02.030Z,1.65
2023-04-12T15:38:29.754Z,1.65
2023-04-12T15:40:58.857Z,1.80
2023-04-12T15:43:25.695Z,1.67
2023-04-12T15:45:56.273Z,1.65
2023-04-12T15:48:24.891Z,2.20
2023-04-12T15:50:52.793Z,1.95
2023-04-12T15:53:21.419Z,1.95
2023-04-12T15:55:48.580Z,2.00
2023-04-12T15:58:15.322Z,2.10
2023-04-12T16:00:42.276Z,2.05
2023-04-12T16:03:09.334Z,2.20
2023-04-12T16:05:36.193Z,2.00
2023-04-12T16:08:02.808Z,1.98
2023-04-12T16:10:30.332Z,2.20
2023-04-12T16:12:58.147Z,2.63
2023-04-12T16:15:24.708Z,2.67
2023-04-12T16:17:53.108Z,2.40
2023-04-12T16:20:23.090Z,2.83
2023-04-12T16:22:56.611Z,1.98
2023-04-12T16:25:24.535Z,2.40
2023-04-12T16:27:52.095Z,2.28
2023-04-12T16:30:18.588Z,2.15
2023-04-12T16:32:48.846Z,2.50
2023-04-12T16:35:16.461Z,3.00
2023-04-12T16:37:44.107Z,2.85
2023-04-12T16:40:12.444Z,3.05
2023-04-12T16:42:42.964Z,3.10
2023-04-12T16:45:11.069Z,2.80
2023-04-12T16:47:38.201Z,2.72
2023-04-12T16:50:07.770Z,2.70
2023-04-12T16:52:35.800Z,2.25
2023-04-12T16:55:02.509Z,2.55
2023-04-12T16:57:29.608Z,2.75
2023-04-12T16:59:57.103Z,2.03
2023-04-12T17:02:24.511Z,2.05
2023-04-12T17:04:51.276Z,1.92
2023-04-12T17:07:18.109Z,2.30
2023-04-12T17:09:44.598Z,2.38
2023-04-12T17:12:11.052Z,3.05
2023-04-12T17:14:37.423Z,2.50
2023-04-12T17:17:06.222Z,2.17
2023-04-12T17:19:33.006Z,2.13
2023-04-12T17:21:59.378Z,2.17
2023-04-12T17:24:26.375Z,2.20
2023-04-12T17:26:53.223Z,1.80
2023-04-12T17:29:20.330Z,1.77
2023-04-12T17:31:49.761Z,2.30
2023-04-12T17:34:18.549Z,2.05
2023-04-12T17:36:44.973Z,1.80
2023-04-12T17:39:11.430Z,1.50
2023-04-12T17:41:38.144Z,1.85
2023-04-12T17:44:06.747Z,1.75
2023-04-12T17:46:42.129Z,1.92
2023-04-12T17:49:13.329Z,2.45
2023-04-12T17:51:49.618Z,2.53
2023-04-12T17:54:27.411Z,2.22
2023-04-12T17:56:57.704Z,2.13
2023-04-12T17:59:33.897Z,1.90
2023-04-12T18:02:01.863Z,1.95
2023-04-12T18:04:29.635Z,1.65
2023-04-12T18:06:57.058Z,1.85
2023-04-12T18:09:24.642Z,2.05
2023-04-12T18:11:51.459Z,2.00
2023-04-12T18:14:20.267Z,2.00
2023-04-12T18:16:47.052Z,1.90
2023-04-12T18:19:16.123Z,1.83
2023-04-12T18:21:46.980Z,1.67
2023-04-12T18:24:13.496Z,1.35
2023-04-12T18:26:39.847Z,1.88
2023-04-12T18:29:06.393Z,1.63
2023-04-12T18:31:32.825Z,2.20
2023-04-12T18:33:59.444Z,1.73
2023-04-12T18:36:27.155Z,1.85
2023-04-12T18:38:53.533Z,1.80
2023-04-12T18:41:35.299Z,1.83
2023-04-12T18:44:02.043Z,1.90
2023-04-12T18:46:29.884Z,2.28
2023-04-12T18:48:56.964Z,2.58
2023-04-12T18:51:23.580Z,2.22
2023-04-12T18:53:53.565Z,2.00
2023-04-12T18:56:25.506Z,2.17
2023-04-12T18:58:55.636Z,1.92
2023-04-12T19:01:23.936Z,1.75
2023-04-12T19:03:51.107Z,1.40
2023-04-12T19:06:18.070Z,1.60
2023-04-12T19:08:44.472Z,1.80
2023-04-12T19:11:11.235Z,1.30
2023-04-12T19:13:38.288Z,1.40
2023-04-12T19:16:07.751Z,1.48
2023-04-12T19:18:34.536Z,1.50
2023-04-12T19:21:02.044Z,1.30
2023-04-12T19:23:28.876Z,1.52
2023-04-12T19:25:56.675Z,1.30
2023-04-12T19:28:23.056Z,1.20
2023-04-12T19:30:49.526Z,1.25
2023-04-12T19:33:15.890Z,1.70
2023-04-12T19:35:44.427Z,2.10
2023-04-12T19:39:03.974Z,1.67
2023-04-12T19:41:30.606Z,1.20
2023-04-12T19:43:57.333Z,1.70
2023-04-12T19:46:23.924Z,1.40
2023-04-12T19:48:51.287Z,1.65
2023-04-12T19:51:17.987Z,1.70
2023-04-12T19:53:46.158Z,1.40
2023-04-12T19:56:12.976Z,1.42
2023-04-12T19:58:40.725Z,2.00
2023-04-12T20:01:07.350Z,1.52
2023-04-12T20:03:33.734Z,1.77
2023-04-12T20:06:03.791Z,1.77
2023-04-12T20:08:30.324Z,1.70
2023-04-12T20:10:56.866Z,1.85
2023-04-12T20:13:23.310Z,1.70
2023-04-12T20:15:50.859Z,1.67
2023-04-12T20:18:17.914Z,1.63
2023-04-12T20:20:44.932Z,1.92
2023-04-12T20:23:14.538Z,1.40
2023-04-12T20:25:42.562Z,1.60
2023-04-12T20:28:09.344Z,1.90
2023-04-12T20:30:36.593Z,1.95
2023-04-12T20:33:03.963Z,2.00
2023-04-12T20:35:30.529Z,1.73
2023-04-12T20:37:57.565Z,1.50
2023-04-12T20:40:27.018Z,1.50
2023-04-12T20:42:53.444Z,1.73
2023-04-12T20:45:21.631Z,1.70
2023-04-12T20:47:48.216Z,1.40
2023-04-12T20:50:15.611Z,1.60
2023-04-12T20:52:41.984Z,1.40
2023-04-12T20:55:10.983Z,1.10
2023-04-12T20:57:37.341Z,1.38
2023-04-12T21:00:12.922Z,1.20
2023-04-12T21:02:40.555Z,1.35
2023-04-12T21:05:07.336Z,1.15
2023-04-12T21:07:33.747Z,1.48
2023-04-12T21:10:01.938Z,1.30
2023-04-12T21:12:31.453Z,1.10
2023-04-12T21:14:57.992Z,1.20
2023-04-12T21:17:25.128Z,1.35
2023-04-12T21:19:51.921Z,1.20
2023-04-12T21:22:18.278Z,1.10
2023-04-12T21:24:45.127Z,1.30
2023-04-12T21:27:12.115Z,1.27
2023-04-12T21:29:41.146Z,1.42
2023-04-12T21:32:08.814Z,1.17
2023-04-12T21:34:35.635Z,1.40
2023-04-12T21:37:04.180Z,1.35
2023-04-12T21:39:31.521Z,1.30
2023-04-12T21:41:58.091Z,1.23
2023-04-12T21:44:25.424Z,1.20
2023-04-12T21:46:51.963Z,1.67
2023-04-12T21:49:18.396Z,1.48
2023-04-12T21:51:46.774Z,1.90
2023-04-12T21:54:13.311Z,1.85
2023-04-12T21:56:39.703Z,2.17
2023-04-12T21:59:07.183Z,2.25
2023-04-12T22:01:34.489Z,2.17
2023-04-12T22:04:01.248Z,2.55
2023-04-12T22:06:27.756Z,2.17
2023-04-12T22:08:54.125Z,2.25
2023-04-12T22:11:20.637Z,2.00
2023-04-12T22:13:47.291Z,2.38
2023-04-12T22:16:14.017Z,2.78
2023-04-12T22:18:41.085Z,2.92
2023-04-12T22:23:50.425Z,2.28
2023-04-12T22:26:16.904Z,2.38
2023-04-12T22:28:44.167Z,2.88
2023-04-12T22:31:14.620Z,2.75
2023-04-12T22:33:41.493Z,2.53
2023-04-12T22:36:08.423Z,2.47
2023-04-12T22:38:35.559Z,2.92
2023-04-12T22:41:02.391Z,2.38
2023-04-12T22:43:42.152Z,2.60
2023-04-12T22:46:16.278Z,2.58
2023-04-12T22:48:47.772Z,2.63
2023-04-12T22:51:14.861Z,2.22
2023-04-12T22:53:41.312Z,2.88
2023-04-12T22:56:11.743Z,2.80
2023-04-12T22:58:40.129Z,2.53
2023-04-12T23:01:07.197Z,2.33
2023-04-12T23:03:33.653Z,2.10
2023-04-12T23:06:00.152Z,2.35
2023-04-12T23:08:26.577Z,2.72
2023-04-12T23:10:53.281Z,2.22
2023-04-12T23:13:19.828Z,2.17
2023-04-12T23:15:46.450Z,2.50
2023-04-12T23:18:13.022Z,2.17
2023-04-12T23:20:40.301Z,2.38
2023-04-12T23:23:06.885Z,2.10
2023-04-12T23:25:39.160Z,2.50
2023-04-12T23:28:12.573Z,2.08
2023-04-12T23:30:42.701Z,2.13
2023-04-12T23:33:12.388Z,2.55
2023-04-12T23:35:41.141Z,2.53
2023-04-12T23:38:08.802Z,2.33
2023-04-12T23:40:35.296Z,2.08
2023-04-12T23:43:02.007Z,2.33
2023-04-12T23:45:28.459Z,1.98
2023-04-12T23:47:54.864Z,1.88
2023-04-12T23:50:21.536Z,2.30
2023-04-12T23:52:48.864Z,2.28
2023-04-12T23:55:15.437Z,2.47
2023-04-12T23:57:42.230Z,2.15
